Flight Track Log - Related Links

Times and Time Zones

All times are in EDT time to prevent confusion due to time zone crossing. See the EJA922 flight status page for this flight to view local times or setup timezone preferences in your user account.

Time Position Orientation Groundspeed Altitude Reporting Facility
EDT Latitude Longitude Course Direction KTS MPH feet Rate Location/Type
Wed 11:07:06 AM 26.8728 -80.3125 289° West 374 430 14,000  Level Miami Center
Wed 11:08:06 AM 26.9058 -80.4183 289° West 394 453 15,400 1,850 Climbing Miami Center
Wed 11:09:06 AM 26.9406 -80.5358 288° West 400 460 17,700 1,300 Climbing Miami Center
Wed 11:10:06 AM 26.9831 -80.6653 290° West 406 467 18,000 150 Climbing Miami Center
Wed 11:11:06 AM 27.0256 -80.7928 291° West 420 483 18,000  Level Miami Center
Wed 11:12:06 AM 27.0661 -80.9200 290° West 431 496 18,000  Level Miami Center
Wed 11:13:06 AM 27.1025 -81.0356 290° West 436 502 18,000  Level Miami Center
Wed 11:14:06 AM 27.1444 -81.1631 290° West 441 507 18,000  Level Miami Center
Wed 11:15:06 AM 27.1903 -81.3072 290° West 446 513 18,000  Level Miami Center
Wed 11:16:06 AM 27.2322 -81.4394 290° West 451 519 18,000  Level Miami Center
Wed 11:17:06 AM 27.2739 -81.5697 290° West 446 513 18,000  Level Miami Center
Wed 11:18:06 AM 27.3153 -81.7022 289° West 446 513 18,000 -800 Level Miami Center
Wed 11:19:06 AM 27.3550 -81.8300 289° West 446 513 16,400 -1,950 Descending Miami Center
Wed 11:20:06 AM 27.3944 -81.9556 290° West 446 513 14,100 -2,300 Descending Miami Center
Wed 11:21:06 AM 27.4317 -82.0767 289° West 434 499 11,800 -1,550 Descending Miami Center
Wed 11:22:06 AM 27.4803 -82.1747 299° West 418 481 11,000 -500 Descending Miami Center
Wed 11:23:06 AM 27.5586 -82.2603 316° Northwest 394 453 10,800 -550 Descending Miami Center
Wed 11:24:06 AM 27.6203 -82.3381 312° West 367 422 9,900 -1,212 Descending Miami Center
Wed 11:24:50 AM 27.6667 -82.4000 310° West 290 334 8,700 -1,582 Descending Tampa TRACON
Wed 11:25:56 AM 27.7500 -82.4167 350° North 282 325 7,000 -1,550 Descending Tampa TRACON
Wed 11:26:50 AM 27.8167 -82.4167 360° North 275 316 5,600 -1,000 Descending Tampa TRACON
Wed 11:27:50 AM 27.8833 -82.4167 360° North 260 299 5,100 -238 Descending Tampa TRACON
Wed 11:28:56 AM 27.9667 -82.4167 360° North 236 272 5,100 -476 Level Tampa TRACON
Wed 11:29:56 AM 28.0167 -82.4167 360° North 218 251 4,100 -1,650 Descending Tampa TRACON
Wed 11:30:56 AM 28.0833 -82.4500 336° Northwest 219 252 1,800 -1,400 Descending Tampa TRACON
Wed 11:31:56 AM 28.0667 -82.5000 249° West 185 213 1,300 -500 Descending Tampa TRACON
Wed 11:32:56 AM 28.0333 -82.5333 221° Southwest 142 163 800 -500 Descending Tampa TRACON
Wed 11:34:00 AM 27.9755 -82.5332 190° South  Level Estimated
Wed 11:41:00 AM 27.9755 -82.5332 190° South  Level Estimated
Wed 11:42:00 AM 27.9755 -82.5332 190° South  Level Estimated
Wed 11:43:00 AM 27.9755 -82.5332 190° South  Level Estimated

Login

Don't have an account? Register now (free) for customized features, flight alerts, and more!